sensor_id;sensor_type;location;lat;lon;timestamp;temperature;humidity
68433;DHT22;55412;51.350;17.056;2022-09-13T00:01:07;13.80;76.20
68433;DHT22;55412;51.350;17.056;2022-09-13T00:03:33;13.80;76.20
68433;DHT22;55412;51.350;17.056;2022-09-13T00:06:11;13.90;76.10
68433;DHT22;55412;51.350;17.056;2022-09-13T00:08:39;13.90;74.80
68433;DHT22;55412;51.350;17.056;2022-09-13T00:11:06;13.90;75.00
68433;DHT22;55412;51.350;17.056;2022-09-13T00:13:32;13.90;75.20
68433;DHT22;55412;51.350;17.056;2022-09-13T00:15:58;13.80;75.60
68433;DHT22;55412;51.350;17.056;2022-09-13T00:18:28;13.80;76.00
68433;DHT22;55412;51.350;17.056;2022-09-13T00:21:04;13.90;75.90
68433;DHT22;55412;51.350;17.056;2022-09-13T00:23:31;13.90;75.80
68433;DHT22;55412;51.350;17.056;2022-09-13T00:26:08;13.90;75.80
68433;DHT22;55412;51.350;17.056;2022-09-13T00:28:37;14.00;75.40
68433;DHT22;55412;51.350;17.056;2022-09-13T00:31:06;13.90;75.40
68433;DHT22;55412;51.350;17.056;2022-09-13T00:33:34;13.90;75.70
68433;DHT22;55412;51.350;17.056;2022-09-13T00:36:05;13.90;75.60
68433;DHT22;55412;51.350;17.056;2022-09-13T00:38:34;13.90;76.00
68433;DHT22;55412;51.350;17.056;2022-09-13T00:41:03;13.90;75.70
68433;DHT22;55412;51.350;17.056;2022-09-13T00:43:58;13.90;75.80
68433;DHT22;55412;51.350;17.056;2022-09-13T00:46:44;14.00;76.00
68433;DHT22;55412;51.350;17.056;2022-09-13T00:51:55;14.00;76.30
68433;DHT22;55412;51.350;17.056;2022-09-13T00:54:28;14.00;76.00
68433;DHT22;55412;51.350;17.056;2022-09-13T00:57:00;14.00;76.00
68433;DHT22;55412;51.350;17.056;2022-09-13T00:59:44;14.00;75.60
68433;DHT22;55412;51.350;17.056;2022-09-13T01:02:13;14.00;75.50
68433;DHT22;55412;51.350;17.056;2022-09-13T01:04:41;14.00;74.70
68433;DHT22;55412;51.350;17.056;2022-09-13T01:07:10;14.00;74.60
68433;DHT22;55412;51.350;17.056;2022-09-13T01:09:39;14.00;75.00
68433;DHT22;55412;51.350;17.056;2022-09-13T01:12:16;13.90;74.70
68433;DHT22;55412;51.350;17.056;2022-09-13T01:14:52;13.90;75.10
68433;DHT22;55412;51.350;17.056;2022-09-13T01:17:18;13.90;74.90
68433;DHT22;55412;51.350;17.056;2022-09-13T01:19:44;13.90;75.50
68433;DHT22;55412;51.350;17.056;2022-09-13T01:31:01;13.80;76.10
68433;DHT22;55412;51.350;17.056;2022-09-13T01:37:17;13.70;76.70
68433;DHT22;55412;51.350;17.056;2022-09-13T01:40:08;13.70;76.80
68433;DHT22;55412;51.350;17.056;2022-09-13T01:42:54;13.70;77.30
68433;DHT22;55412;51.350;17.056;2022-09-13T01:48:55;13.70;77.20
68433;DHT22;55412;51.350;17.056;2022-09-13T01:51:55;13.60;77.50
68433;DHT22;55412;51.350;17.056;2022-09-13T01:58:04;13.60;77.40
68433;DHT22;55412;51.350;17.056;2022-09-13T02:00:43;13.60;77.60
68433;DHT22;55412;51.350;17.056;2022-09-13T02:03:37;13.60;77.90
68433;DHT22;55412;51.350;17.056;2022-09-13T02:06:22;13.60;77.90
68433;DHT22;55412;51.350;17.056;2022-09-13T02:08:57;13.60;77.80
68433;DHT22;55412;51.350;17.056;2022-09-13T02:11:25;13.60;77.90
68433;DHT22;55412;51.350;17.056;2022-09-13T02:14:11;13.60;77.90
68433;DHT22;55412;51.350;17.056;2022-09-13T02:16:46;13.70;77.90
68433;DHT22;55412;51.350;17.056;2022-09-13T02:19:22;13.60;77.50
68433;DHT22;55412;51.350;17.056;2022-09-13T02:22:13;13.70;77.10
68433;DHT22;55412;51.350;17.056;2022-09-13T02:24:45;13.70;76.80
68433;DHT22;55412;51.350;17.056;2022-09-13T02:27:20;13.70;76.60
68433;DHT22;55412;51.350;17.056;2022-09-13T02:29:54;13.70;76.70
68433;DHT22;55412;51.350;17.056;2022-09-13T02:32:39;13.70;76.50
68433;DHT22;55412;51.350;17.056;2022-09-13T02:35:20;13.60;76.40
68433;DHT22;55412;51.350;17.056;2022-09-13T02:38:22;13.60;76.80
68433;DHT22;55412;51.350;17.056;2022-09-13T02:40:56;13.70;76.20
68433;DHT22;55412;51.350;17.056;2022-09-13T02:43:38;13.70;76.20
68433;DHT22;55412;51.350;17.056;2022-09-13T02:52:25;13.70;76.40
68433;DHT22;55412;51.350;17.056;2022-09-13T02:55:04;13.70;76.50
68433;DHT22;55412;51.350;17.056;2022-09-13T02:57:51;13.70;76.80
68433;DHT22;55412;51.350;17.056;2022-09-13T03:00:24;13.60;76.70
68433;DHT22;55412;51.350;17.056;2022-09-13T03:02:51;13.50;76.70
68433;DHT22;55412;51.350;17.056;2022-09-13T03:05:18;13.50;76.70
68433;DHT22;55412;51.350;17.056;2022-09-13T03:07:44;13.50;76.60
68433;DHT22;55412;51.350;17.056;2022-09-13T03:10:13;13.50;76.90
68433;DHT22;55412;51.350;17.056;2022-09-13T03:12:50;13.40;76.90
68433;DHT22;55412;51.350;17.056;2022-09-13T03:15:38;13.40;77.00
68433;DHT22;55412;51.350;17.056;2022-09-13T03:18:23;13.40;77.30
68433;DHT22;55412;51.350;17.056;2022-09-13T03:21:00;13.50;77.70
68433;DHT22;55412;51.350;17.056;2022-09-13T03:29:03;13.60;77.00
68433;DHT22;55412;51.350;17.056;2022-09-13T03:34:57;13.70;77.00
68433;DHT22;55412;51.350;17.056;2022-09-13T03:49:19;13.50;76.30
68433;DHT22;55412;51.350;17.056;2022-09-13T03:51:49;13.50;76.30
68433;DHT22;55412;51.350;17.056;2022-09-13T03:54:22;13.50;76.20
68433;DHT22;55412;51.350;17.056;2022-09-13T03:57:18;13.40;76.20
68433;DHT22;55412;51.350;17.056;2022-09-13T03:59:52;13.50;76.00
68433;DHT22;55412;51.350;17.056;2022-09-13T04:02:20;13.50;76.10
68433;DHT22;55412;51.350;17.056;2022-09-13T04:04:48;13.50;76.40
68433;DHT22;55412;51.350;17.056;2022-09-13T04:07:18;13.50;76.40
68433;DHT22;55412;51.350;17.056;2022-09-13T04:09:46;13.50;76.70
68433;DHT22;55412;51.350;17.056;2022-09-13T04:12:13;13.60;77.20
68433;DHT22;55412;51.350;17.056;2022-09-13T04:14:40;13.60;76.80
68433;DHT22;55412;51.350;17.056;2022-09-13T04:17:10;13.70;76.70
68433;DHT22;55412;51.350;17.056;2022-09-13T04:19:38;13.70;76.70
68433;DHT22;55412;51.350;17.056;2022-09-13T04:22:04;13.70;76.70
68433;DHT22;55412;51.350;17.056;2022-09-13T04:24:31;13.70;76.60
68433;DHT22;55412;51.350;17.056;2022-09-13T04:26:57;13.70;76.30
68433;DHT22;55412;51.350;17.056;2022-09-13T04:29:25;13.80;76.30
68433;DHT22;55412;51.350;17.056;2022-09-13T04:31:52;13.80;76.40
68433;DHT22;55412;51.350;17.056;2022-09-13T04:34:20;13.80;76.40
68433;DHT22;55412;51.350;17.056;2022-09-13T04:36:48;13.90;76.00
68433;DHT22;55412;51.350;17.056;2022-09-13T04:39:15;13.90;75.70
68433;DHT22;55412;51.350;17.056;2022-09-13T04:41:42;14.00;75.50
68433;DHT22;55412;51.350;17.056;2022-09-13T04:44:10;14.00;75.40
68433;DHT22;55412;51.350;17.056;2022-09-13T04:46:37;14.10;74.90
68433;DHT22;55412;51.350;17.056;2022-09-13T04:49:03;14.10;75.00
68433;DHT22;55412;51.350;17.056;2022-09-13T04:51:29;14.10;75.10
68433;DHT22;55412;51.350;17.056;2022-09-13T04:53:55;14.20;74.90
68433;DHT22;55412;51.350;17.056;2022-09-13T04:56:22;14.30;75.20
68433;DHT22;55412;51.350;17.056;2022-09-13T04:58:53;14.30;74.90
68433;DHT22;55412;51.350;17.056;2022-09-13T05:01:21;14.40;74.70
68433;DHT22;55412;51.350;17.056;2022-09-13T05:03:50;14.50;74.10
68433;DHT22;55412;51.350;17.056;2022-09-13T05:06:18;14.50;74.20
68433;DHT22;55412;51.350;17.056;2022-09-13T05:08:48;14.50;74.00
68433;DHT22;55412;51.350;17.056;2022-09-13T05:11:16;14.50;73.80
68433;DHT22;55412;51.350;17.056;2022-09-13T05:13:43;14.40;74.10
68433;DHT22;55412;51.350;17.056;2022-09-13T05:16:09;14.40;74.20
68433;DHT22;55412;51.350;17.056;2022-09-13T05:18:35;14.40;74.30
68433;DHT22;55412;51.350;17.056;2022-09-13T05:21:03;14.40;74.30
68433;DHT22;55412;51.350;17.056;2022-09-13T05:23:30;14.40;74.40
68433;DHT22;55412;51.350;17.056;2022-09-13T05:26:02;14.40;74.40
68433;DHT22;55412;51.350;17.056;2022-09-13T05:28:31;14.40;74.60
68433;DHT22;55412;51.350;17.056;2022-09-13T05:31:04;14.50;74.50
68433;DHT22;55412;51.350;17.056;2022-09-13T05:33:45;14.50;74.40
68433;DHT22;55412;51.350;17.056;2022-09-13T05:36:13;14.50;74.30
68433;DHT22;55412;51.350;17.056;2022-09-13T05:38:39;14.60;74.00
68433;DHT22;55412;51.350;17.056;2022-09-13T05:41:06;14.50;74.50
68433;DHT22;55412;51.350;17.056;2022-09-13T05:43:34;14.50;74.20
68433;DHT22;55412;51.350;17.056;2022-09-13T05:46:12;14.60;74.20
68433;DHT22;55412;51.350;17.056;2022-09-13T05:48:40;14.60;74.80
68433;DHT22;55412;51.350;17.056;2022-09-13T05:51:17;14.60;74.80
68433;DHT22;55412;51.350;17.056;2022-09-13T05:53:50;14.60;74.30
68433;DHT22;55412;51.350;17.056;2022-09-13T05:56:22;14.70;74.40
68433;DHT22;55412;51.350;17.056;2022-09-13T05:58:51;14.70;74.70
68433;DHT22;55412;51.350;17.056;2022-09-13T06:01:20;14.70;74.70
68433;DHT22;55412;51.350;17.056;2022-09-13T06:03:52;14.80;74.70
68433;DHT22;55412;51.350;17.056;2022-09-13T06:06:21;14.90;74.40
68433;DHT22;55412;51.350;17.056;2022-09-13T06:08:51;15.00;74.30
68433;DHT22;55412;51.350;17.056;2022-09-13T06:11:18;15.00;73.90
68433;DHT22;55412;51.350;17.056;2022-09-13T06:13:44;15.10;73.80
68433;DHT22;55412;51.350;17.056;2022-09-13T06:16:12;15.10;73.70
68433;DHT22;55412;51.350;17.056;2022-09-13T06:18:38;15.20;73.50
68433;DHT22;55412;51.350;17.056;2022-09-13T06:21:10;15.30;72.70
68433;DHT22;55412;51.350;17.056;2022-09-13T06:23:51;15.40;72.10
68433;DHT22;55412;51.350;17.056;2022-09-13T06:26:20;15.50;72.50
68433;DHT22;55412;51.350;17.056;2022-09-13T06:28:52;15.60;71.80
68433;DHT22;55412;51.350;17.056;2022-09-13T06:31:21;15.70;71.80
68433;DHT22;55412;51.350;17.056;2022-09-13T06:33:57;15.90;72.40
68433;DHT22;55412;51.350;17.056;2022-09-13T06:36:25;16.00;71.70
68433;DHT22;55412;51.350;17.056;2022-09-13T06:38:52;16.10;70.30
68433;DHT22;55412;51.350;17.056;2022-09-13T06:41:22;16.10;70.40
68433;DHT22;55412;51.350;17.056;2022-09-13T06:43:57;16.20;69.60
68433;DHT22;55412;51.350;17.056;2022-09-13T06:46:26;16.20;69.70
68433;DHT22;55412;51.350;17.056;2022-09-13T06:48:54;16.30;69.90
68433;DHT22;55412;51.350;17.056;2022-09-13T06:51:24;16.40;69.20
68433;DHT22;55412;51.350;17.056;2022-09-13T06:53:52;16.50;69.10
68433;DHT22;55412;51.350;17.056;2022-09-13T06:56:23;16.60;70.60
68433;DHT22;55412;51.350;17.056;2022-09-13T06:58:59;16.80;70.10
68433;DHT22;55412;51.350;17.056;2022-09-13T07:01:30;17.00;67.00
68433;DHT22;55412;51.350;17.056;2022-09-13T07:04:08;17.10;66.90
68433;DHT22;55412;51.350;17.056;2022-09-13T07:06:41;17.30;67.60
68433;DHT22;55412;51.350;17.056;2022-09-13T07:09:11;17.50;66.20
68433;DHT22;55412;51.350;17.056;2022-09-13T07:11:46;17.60;64.60
68433;DHT22;55412;51.350;17.056;2022-09-13T07:14:15;17.80;65.70
68433;DHT22;55412;51.350;17.056;2022-09-13T07:16:43;17.90;64.30
68433;DHT22;55412;51.350;17.056;2022-09-13T07:19:16;18.10;64.10
68433;DHT22;55412;51.350;17.056;2022-09-13T07:21:45;18.20;63.00
68433;DHT22;55412;51.350;17.056;2022-09-13T07:24:11;18.30;63.00
68433;DHT22;55412;51.350;17.056;2022-09-13T07:26:37;18.50;63.20
68433;DHT22;55412;51.350;17.056;2022-09-13T07:29:06;18.70;62.20
68433;DHT22;55412;51.350;17.056;2022-09-13T07:31:37;18.80;61.30
68433;DHT22;55412;51.350;17.056;2022-09-13T07:34:14;18.90;61.80
68433;DHT22;55412;51.350;17.056;2022-09-13T07:36:42;19.10;60.80
68433;DHT22;55412;51.350;17.056;2022-09-13T07:39:09;19.20;60.70
68433;DHT22;55412;51.350;17.056;2022-09-13T07:41:36;19.40;61.40
68433;DHT22;55412;51.350;17.056;2022-09-13T07:44:02;19.50;58.40
68433;DHT22;55412;51.350;17.056;2022-09-13T07:46:34;19.60;59.30
68433;DHT22;55412;51.350;17.056;2022-09-13T07:49:09;19.70;58.90
68433;DHT22;55412;51.350;17.056;2022-09-13T07:51:38;19.80;58.80
68433;DHT22;55412;51.350;17.056;2022-09-13T07:54:13;19.90;58.80
68433;DHT22;55412;51.350;17.056;2022-09-13T07:56:41;20.00;58.30
68433;DHT22;55412;51.350;17.056;2022-09-13T07:59:11;20.10;58.30
68433;DHT22;55412;51.350;17.056;2022-09-13T08:01:46;20.30;58.90
68433;DHT22;55412;51.350;17.056;2022-09-13T08:04:19;20.40;59.70
68433;DHT22;55412;51.350;17.056;2022-09-13T08:06:46;20.50;57.60
68433;DHT22;55412;51.350;17.056;2022-09-13T08:09:13;20.40;56.60
68433;DHT22;55412;51.350;17.056;2022-09-13T08:11:45;20.30;58.00
68433;DHT22;55412;51.350;17.056;2022-09-13T08:14:16;20.40;58.70
68433;DHT22;55412;51.350;17.056;2022-09-13T08:16:44;20.50;57.50
68433;DHT22;55412;51.350;17.056;2022-09-13T08:19:15;20.60;58.70
68433;DHT22;55412;51.350;17.056;2022-09-13T08:21:43;20.70;57.00
68433;DHT22;55412;51.350;17.056;2022-09-13T08:24:18;20.80;57.90
68433;DHT22;55412;51.350;17.056;2022-09-13T08:26:46;21.00;57.60
68433;DHT22;55412;51.350;17.056;2022-09-13T08:29:13;21.10;57.50
68433;DHT22;55412;51.350;17.056;2022-09-13T08:31:40;21.20;57.00
68433;DHT22;55412;51.350;17.056;2022-09-13T08:34:10;21.30;57.20
68433;DHT22;55412;51.350;17.056;2022-09-13T08:36:37;21.40;56.70
68433;DHT22;55412;51.350;17.056;2022-09-13T08:39:04;21.40;56.40
68433;DHT22;55412;51.350;17.056;2022-09-13T08:41:34;21.40;56.00
68433;DHT22;55412;51.350;17.056;2022-09-13T08:44:36;21.40;58.60
68433;DHT22;55412;51.350;17.056;2022-09-13T08:47:23;21.50;57.10
68433;DHT22;55412;51.350;17.056;2022-09-13T08:50:10;21.60;57.30
68433;DHT22;55412;51.350;17.056;2022-09-13T08:55:30;21.70;55.20
68433;DHT22;55412;51.350;17.056;2022-09-13T08:58:26;21.70;56.10
68433;DHT22;55412;51.350;17.056;2022-09-13T09:06:45;22.10;57.50
68433;DHT22;55412;51.350;17.056;2022-09-13T09:09:17;22.30;55.20
68433;DHT22;55412;51.350;17.056;2022-09-13T09:11:53;22.40;56.10
68433;DHT22;55412;51.350;17.056;2022-09-13T09:14:30;22.60;55.70
68433;DHT22;55412;51.350;17.056;2022-09-13T09:16:59;22.80;55.50
68433;DHT22;55412;51.350;17.056;2022-09-13T09:19:33;22.90;52.40
68433;DHT22;55412;51.350;17.056;2022-09-13T09:22:12;22.90;52.20
68433;DHT22;55412;51.350;17.056;2022-09-13T09:24:49;22.90;54.20
68433;DHT22;55412;51.350;17.056;2022-09-13T09:27:20;23.00;53.50
68433;DHT22;55412;51.350;17.056;2022-09-13T09:29:56;22.80;53.60
68433;DHT22;55412;51.350;17.056;2022-09-13T09:36:02;22.40;55.50
68433;DHT22;55412;51.350;17.056;2022-09-13T09:38:38;22.30;55.70
68433;DHT22;55412;51.350;17.056;2022-09-13T09:41:19;22.10;54.30
68433;DHT22;55412;51.350;17.056;2022-09-13T09:44:20;22.00;55.80
68433;DHT22;55412;51.350;17.056;2022-09-13T09:47:03;21.90;55.70
68433;DHT22;55412;51.350;17.056;2022-09-13T09:50:31;21.80;55.30
68433;DHT22;55412;51.350;17.056;2022-09-13T09:53:02;21.70;56.60
68433;DHT22;55412;51.350;17.056;2022-09-13T09:55:48;21.60;56.80
68433;DHT22;55412;51.350;17.056;2022-09-13T09:58:38;21.40;57.90
68433;DHT22;55412;51.350;17.056;2022-09-13T10:01:19;21.20;58.20
68433;DHT22;55412;51.350;17.056;2022-09-13T10:06:37;21.00;59.10
68433;DHT22;55412;51.350;17.056;2022-09-13T10:11:56;20.80;59.90
68433;DHT22;55412;51.350;17.056;2022-09-13T10:20:01;20.60;61.80
68433;DHT22;55412;51.350;17.056;2022-09-13T10:22:43;20.60;61.90
68433;DHT22;55412;51.350;17.056;2022-09-13T10:25:23;20.50;62.40
68433;DHT22;55412;51.350;17.056;2022-09-13T10:27:56;20.40;62.90
68433;DHT22;55412;51.350;17.056;2022-09-13T10:30:46;20.40;64.50
68433;DHT22;55412;51.350;17.056;2022-09-13T10:33:30;20.40;65.30
68433;DHT22;55412;51.350;17.056;2022-09-13T10:36:02;20.40;65.50
68433;DHT22;55412;51.350;17.056;2022-09-13T10:38:41;20.40;65.70
68433;DHT22;55412;51.350;17.056;2022-09-13T10:41:23;20.50;66.00
68433;DHT22;55412;51.350;17.056;2022-09-13T10:43:58;20.50;66.30
68433;DHT22;55412;51.350;17.056;2022-09-13T10:46:28;20.60;65.70
68433;DHT22;55412;51.350;17.056;2022-09-13T10:48:56;20.60;65.50
68433;DHT22;55412;51.350;17.056;2022-09-13T10:54:08;20.80;65.40
68433;DHT22;55412;51.350;17.056;2022-09-13T10:56:40;21.00;64.00
68433;DHT22;55412;51.350;17.056;2022-09-13T10:59:24;21.10;62.80
68433;DHT22;55412;51.350;17.056;2022-09-13T11:08:40;21.60;60.60
68433;DHT22;55412;51.350;17.056;2022-09-13T11:25:57;22.40;56.20
68433;DHT22;55412;51.350;17.056;2022-09-13T11:47:36;22.60;58.70
68433;DHT22;55412;51.350;17.056;2022-09-13T11:56:37;22.60;58.50
68433;DHT22;55412;51.350;17.056;2022-09-13T11:59:22;22.50;58.40
68433;DHT22;55412;51.350;17.056;2022-09-13T12:02:01;22.50;58.00
68433;DHT22;55412;51.350;17.056;2022-09-13T12:04:36;22.40;58.00
68433;DHT22;55412;51.350;17.056;2022-09-13T12:07:18;22.40;58.10
68433;DHT22;55412;51.350;17.056;2022-09-13T12:09:59;22.40;58.20
68433;DHT22;55412;51.350;17.056;2022-09-13T12:12:32;22.30;58.10
68433;DHT22;55412;51.350;17.056;2022-09-13T12:17:55;22.20;58.60
68433;DHT22;55412;51.350;17.056;2022-09-13T12:20:34;22.20;58.80
68433;DHT22;55412;51.350;17.056;2022-09-13T12:23:08;22.20;59.10
68433;DHT22;55412;51.350;17.056;2022-09-13T12:28:53;22.10;58.70
68433;DHT22;55412;51.350;17.056;2022-09-13T12:31:25;22.00;58.50
68433;DHT22;55412;51.350;17.056;2022-09-13T12:33:52;22.00;59.00
68433;DHT22;55412;51.350;17.056;2022-09-13T12:39:37;21.90;59.60
68433;DHT22;55412;51.350;17.056;2022-09-13T12:53:37;21.80;59.80
68433;DHT22;55412;51.350;17.056;2022-09-13T13:02:42;21.80;60.00
68433;DHT22;55412;51.350;17.056;2022-09-13T13:05:27;21.80;60.00
68433;DHT22;55412;51.350;17.056;2022-09-13T13:08:05;21.70;60.20
68433;DHT22;55412;51.350;17.056;2022-09-13T13:10:40;21.70;60.70
68433;DHT22;55412;51.350;17.056;2022-09-13T13:13:34;21.70;61.00
68433;DHT22;55412;51.350;17.056;2022-09-13T13:16:18;21.70;60.90
68433;DHT22;55412;51.350;17.056;2022-09-13T13:19:02;21.70;61.30
68433;DHT22;55412;51.350;17.056;2022-09-13T13:21:49;21.70;61.50
68433;DHT22;55412;51.350;17.056;2022-09-13T13:26:51;21.70;61.70
68433;DHT22;55412;51.350;17.056;2022-09-13T13:29:21;21.70;60.40
68433;DHT22;55412;51.350;17.056;2022-09-13T13:34:35;21.70;60.60
68433;DHT22;55412;51.350;17.056;2022-09-13T13:39:38;21.70;61.00
68433;DHT22;55412;51.350;17.056;2022-09-13T13:42:27;21.60;60.00
68433;DHT22;55412;51.350;17.056;2022-09-13T13:45:26;21.60;60.60
68433;DHT22;55412;51.350;17.056;2022-09-13T13:48:05;21.60;61.20
68433;DHT22;55412;51.350;17.056;2022-09-13T13:53:37;21.60;61.50
68433;DHT22;55412;51.350;17.056;2022-09-13T13:56:17;21.60;61.20
68433;DHT22;55412;51.350;17.056;2022-09-13T13:59:26;21.60;61.10
68433;DHT22;55412;51.350;17.056;2022-09-13T14:01:57;21.60;61.20
68433;DHT22;55412;51.350;17.056;2022-09-13T14:04:55;21.60;60.60
68433;DHT22;55412;51.350;17.056;2022-09-13T14:10:59;21.60;60.90
68433;DHT22;55412;51.350;17.056;2022-09-13T14:16:47;21.60;61.20
68433;DHT22;55412;51.350;17.056;2022-09-13T14:19:45;21.70;60.90
68433;DHT22;55412;51.350;17.056;2022-09-13T14:22:14;21.70;61.30
68433;DHT22;55412;51.350;17.056;2022-09-13T14:24:55;21.70;61.20
68433;DHT22;55412;51.350;17.056;2022-09-13T14:27:39;21.60;61.50
68433;DHT22;55412;51.350;17.056;2022-09-13T14:30:33;21.60;61.30
68433;DHT22;55412;51.350;17.056;2022-09-13T14:33:01;21.70;60.80
68433;DHT22;55412;51.350;17.056;2022-09-13T14:35:38;21.60;60.80
68433;DHT22;55412;51.350;17.056;2022-09-13T14:40:47;21.70;61.10
68433;DHT22;55412;51.350;17.056;2022-09-13T14:43:19;21.70;61.30
68433;DHT22;55412;51.350;17.056;2022-09-13T14:45:51;21.70;60.70
68433;DHT22;55412;51.350;17.056;2022-09-13T14:48:54;21.70;60.60
68433;DHT22;55412;51.350;17.056;2022-09-13T14:51:27;21.70;60.70
68433;DHT22;55412;51.350;17.056;2022-09-13T14:54:00;21.70;60.90
68433;DHT22;55412;51.350;17.056;2022-09-13T14:56:41;21.80;61.60
68433;DHT22;55412;51.350;17.056;2022-09-13T14:59:28;21.70;60.80
68433;DHT22;55412;51.350;17.056;2022-09-13T15:02:26;21.70;61.10
68433;DHT22;55412;51.350;17.056;2022-09-13T15:04:57;21.70;61.20
68433;DHT22;55412;51.350;17.056;2022-09-13T15:07:33;21.70;61.70
68433;DHT22;55412;51.350;17.056;2022-09-13T15:20:27;21.60;62.50
68433;DHT22;55412;51.350;17.056;2022-09-13T15:22:56;21.60;62.30
68433;DHT22;55412;51.350;17.056;2022-09-13T15:25:26;21.50;62.40
68433;DHT22;55412;51.350;17.056;2022-09-13T15:27:54;21.60;62.00
68433;DHT22;55412;51.350;17.056;2022-09-13T15:30:22;21.50;62.10
68433;DHT22;55412;51.350;17.056;2022-09-13T15:33:21;21.50;62.20
68433;DHT22;55412;51.350;17.056;2022-09-13T15:35:55;21.50;62.00
68433;DHT22;55412;51.350;17.056;2022-09-13T15:39:16;21.50;62.30
68433;DHT22;55412;51.350;17.056;2022-09-13T15:42:00;21.50;62.40
68433;DHT22;55412;51.350;17.056;2022-09-13T15:44:27;21.50;62.60
68433;DHT22;55412;51.350;17.056;2022-09-13T15:47:00;21.40;62.60
68433;DHT22;55412;51.350;17.056;2022-09-13T15:49:29;21.40;63.00
68433;DHT22;55412;51.350;17.056;2022-09-13T15:51:59;21.40;62.80
68433;DHT22;55412;51.350;17.056;2022-09-13T15:54:35;21.40;63.00
68433;DHT22;55412;51.350;17.056;2022-09-13T15:57:08;21.40;63.10
68433;DHT22;55412;51.350;17.056;2022-09-13T15:59:39;21.30;62.90
68433;DHT22;55412;51.350;17.056;2022-09-13T16:02:21;21.30;62.90
68433;DHT22;55412;51.350;17.056;2022-09-13T16:04:48;21.30;62.90
68433;DHT22;55412;51.350;17.056;2022-09-13T16:07:15;21.30;63.10
68433;DHT22;55412;51.350;17.056;2022-09-13T16:09:42;21.30;63.00
68433;DHT22;55412;51.350;17.056;2022-09-13T16:12:09;21.30;62.90
68433;DHT22;55412;51.350;17.056;2022-09-13T16:14:35;21.20;63.00
68433;DHT22;55412;51.350;17.056;2022-09-13T16:17:09;21.20;63.30
68433;DHT22;55412;51.350;17.056;2022-09-13T16:19:37;21.20;63.20
68433;DHT22;55412;51.350;17.056;2022-09-13T16:22:03;21.20;63.00
68433;DHT22;55412;51.350;17.056;2022-09-13T16:24:29;21.20;63.30
68433;DHT22;55412;51.350;17.056;2022-09-13T16:26:58;21.20;63.30
68433;DHT22;55412;51.350;17.056;2022-09-13T16:29:26;21.10;63.20
68433;DHT22;55412;51.350;17.056;2022-09-13T16:31:52;21.10;63.50
68433;DHT22;55412;51.350;17.056;2022-09-13T16:34:18;21.10;63.40
68433;DHT22;55412;51.350;17.056;2022-09-13T16:36:44;21.10;63.40
68433;DHT22;55412;51.350;17.056;2022-09-13T16:39:10;21.10;63.50
68433;DHT22;55412;51.350;17.056;2022-09-13T16:41:38;21.00;63.40
68433;DHT22;55412;51.350;17.056;2022-09-13T16:44:05;21.00;63.70
68433;DHT22;55412;51.350;17.056;2022-09-13T16:46:32;21.00;63.50
68433;DHT22;55412;51.350;17.056;2022-09-13T16:48:58;21.00;63.70
68433;DHT22;55412;51.350;17.056;2022-09-13T16:51:25;21.00;63.80
68433;DHT22;55412;51.350;17.056;2022-09-13T16:53:52;21.00;64.00
68433;DHT22;55412;51.350;17.056;2022-09-13T16:56:22;21.00;64.00
68433;DHT22;55412;51.350;17.056;2022-09-13T16:58:50;21.00;64.20
68433;DHT22;55412;51.350;17.056;2022-09-13T17:01:27;20.90;64.20
68433;DHT22;55412;51.350;17.056;2022-09-13T17:03:54;20.90;64.40
68433;DHT22;55412;51.350;17.056;2022-09-13T17:06:22;20.90;64.40
68433;DHT22;55412;51.350;17.056;2022-09-13T17:08:52;20.90;64.60
68433;DHT22;55412;51.350;17.056;2022-09-13T17:11:27;20.90;64.60
68433;DHT22;55412;51.350;17.056;2022-09-13T17:13:54;20.80;64.70
68433;DHT22;55412;51.350;17.056;2022-09-13T17:16:34;20.80;64.80
68433;DHT22;55412;51.350;17.056;2022-09-13T17:19:05;20.80;64.90
68433;DHT22;55412;51.350;17.056;2022-09-13T17:21:34;20.80;65.00
68433;DHT22;55412;51.350;17.056;2022-09-13T17:24:00;20.70;64.90
68433;DHT22;55412;51.350;17.056;2022-09-13T17:26:27;20.70;65.10
68433;DHT22;55412;51.350;17.056;2022-09-13T17:28:53;20.70;65.00
68433;DHT22;55412;51.350;17.056;2022-09-13T17:31:19;20.70;65.40
68433;DHT22;55412;51.350;17.056;2022-09-13T17:33:45;20.70;66.00
68433;DHT22;55412;51.350;17.056;2022-09-13T17:36:12;20.60;65.90
68433;DHT22;55412;51.350;17.056;2022-09-13T17:38:39;20.60;66.00
68433;DHT22;55412;51.350;17.056;2022-09-13T17:41:15;20.60;65.90
68433;DHT22;55412;51.350;17.056;2022-09-13T17:43:42;20.50;66.20
68433;DHT22;55412;51.350;17.056;2022-09-13T17:46:12;20.50;66.30
68433;DHT22;55412;51.350;17.056;2022-09-13T17:48:43;20.50;66.20
68433;DHT22;55412;51.350;17.056;2022-09-13T17:51:12;20.50;66.30
68433;DHT22;55412;51.350;17.056;2022-09-13T17:53:46;20.40;66.30
68433;DHT22;55412;51.350;17.056;2022-09-13T17:56:19;20.40;66.30
68433;DHT22;55412;51.350;17.056;2022-09-13T17:58:47;20.40;66.40
68433;DHT22;55412;51.350;17.056;2022-09-13T18:01:14;20.30;66.30
68433;DHT22;55412;51.350;17.056;2022-09-13T18:03:40;20.30;66.40
68433;DHT22;55412;51.350;17.056;2022-09-13T18:06:08;20.30;66.40
68433;DHT22;55412;51.350;17.056;2022-09-13T18:08:36;20.30;66.50
68433;DHT22;55412;51.350;17.056;2022-09-13T18:11:08;20.30;66.40
68433;DHT22;55412;51.350;17.056;2022-09-13T18:13:37;20.20;66.50
68433;DHT22;55412;51.350;17.056;2022-09-13T18:16:05;20.20;66.50
68433;DHT22;55412;51.350;17.056;2022-09-13T18:18:42;20.20;66.70
68433;DHT22;55412;51.350;17.056;2022-09-13T18:21:11;20.20;66.70
68433;DHT22;55412;51.350;17.056;2022-09-13T18:23:44;20.10;66.80
68433;DHT22;55412;51.350;17.056;2022-09-13T18:26:13;20.10;66.90
68433;DHT22;55412;51.350;17.056;2022-09-13T18:28:42;20.10;66.80
68433;DHT22;55412;51.350;17.056;2022-09-13T18:31:12;20.10;67.00
68433;DHT22;55412;51.350;17.056;2022-09-13T18:33:40;20.10;66.90
68433;DHT22;55412;51.350;17.056;2022-09-13T18:36:10;20.10;67.10
68433;DHT22;55412;51.350;17.056;2022-09-13T18:38:40;20.10;67.20
68433;DHT22;55412;51.350;17.056;2022-09-13T18:41:14;20.00;67.20
68433;DHT22;55412;51.350;17.056;2022-09-13T18:44:01;20.00;67.40
68433;DHT22;55412;51.350;17.056;2022-09-13T18:46:30;20.00;67.50
68433;DHT22;55412;51.350;17.056;2022-09-13T18:48:57;20.00;67.60
68433;DHT22;55412;51.350;17.056;2022-09-13T18:51:27;20.00;67.60
68433;DHT22;55412;51.350;17.056;2022-09-13T18:53:54;20.00;67.70